createdAt,value
2023-03-03T00:02:19.528Z,56.17
2023-03-03T00:04:46.949Z,60.40
2023-03-03T00:07:21.474Z,60.03
2023-03-03T00:09:48.870Z,64.90
2023-03-03T00:12:21.560Z,63.20
2023-03-03T00:14:48.836Z,63.57
2023-03-03T00:17:20.330Z,64.57
2023-03-03T00:19:47.642Z,63.43
2023-03-03T00:22:16.943Z,60.70
2023-03-03T00:24:44.533Z,59.67
2023-03-03T00:27:21.823Z,60.20
2023-03-03T00:29:51.152Z,64.77
2023-03-03T00:32:26.142Z,62.83
2023-03-03T00:34:54.544Z,61.23
2023-03-03T00:37:21.748Z,60.93
2023-03-03T00:39:49.662Z,63.30
2023-03-03T00:42:17.981Z,59.10
2023-03-03T00:44:46.474Z,63.33
2023-03-03T00:47:23.407Z,66.57
2023-03-03T00:49:50.740Z,65.00
2023-03-03T00:52:19.068Z,60.00
2023-03-03T00:54:49.599Z,62.10
2023-03-03T00:57:20.985Z,63.47
2023-03-03T00:59:50.711Z,63.87
2023-03-03T01:02:20.189Z,60.70
2023-03-03T01:04:56.415Z,60.13
2023-03-03T01:07:23.854Z,57.07
2023-03-03T01:09:51.150Z,54.70
2023-03-03T01:12:18.583Z,55.43
2023-03-03T01:14:45.995Z,56.37
2023-03-03T01:17:13.360Z,60.13
2023-03-03T01:19:40.797Z,58.33
2023-03-03T01:22:08.023Z,57.03
2023-03-03T01:24:35.362Z,58.20
2023-03-03T01:27:02.634Z,58.17
2023-03-03T01:29:29.825Z,61.13
2023-03-03T01:31:57.279Z,62.87
2023-03-03T01:34:25.117Z,61.77
2023-03-03T01:36:52.743Z,57.20
2023-03-03T01:39:19.980Z,57.77
2023-03-03T01:41:47.254Z,56.07
2023-03-03T01:44:18.274Z,56.63
2023-03-03T01:46:45.664Z,57.30
2023-03-03T01:49:26.876Z,52.03
2023-03-03T01:52:02.048Z,52.43
2023-03-03T01:54:36.802Z,52.87
2023-03-03T01:57:07.090Z,58.00
2023-03-03T01:59:38.619Z,57.07
2023-03-03T02:02:06.200Z,55.17
2023-03-03T02:04:35.182Z,59.70
2023-03-03T02:07:06.903Z,66.47
2023-03-03T02:09:52.926Z,60.70
2023-03-03T02:12:23.478Z,55.57
2023-03-03T02:14:50.755Z,62.40
2023-03-03T02:17:18.926Z,61.20
2023-03-03T02:19:46.249Z,56.53
2023-03-03T02:22:15.667Z,56.30
2023-03-03T02:24:45.759Z,56.37
2023-03-03T02:27:14.368Z,53.20
2023-03-03T02:29:42.936Z,58.37
2023-03-03T02:32:11.064Z,59.57
2023-03-03T02:34:46.272Z,55.33
2023-03-03T02:37:15.806Z,53.87
2023-03-03T02:39:44.240Z,55.63
2023-03-03T02:42:14.608Z,58.00
2023-03-03T02:44:46.459Z,60.97
2023-03-03T02:47:13.752Z,58.13
2023-03-03T02:49:42.583Z,54.73
2023-03-03T02:52:10.975Z,57.77
2023-03-03T02:54:41.204Z,55.77
2023-03-03T02:57:09.040Z,54.00
2023-03-03T02:59:36.563Z,57.00
2023-03-03T03:02:11.202Z,52.93
2023-03-03T03:04:38.640Z,55.60
2023-03-03T03:07:06.019Z,54.07
2023-03-03T03:09:36.587Z,55.63
2023-03-03T03:12:05.375Z,51.87
2023-03-03T03:14:34.817Z,57.90
2023-03-03T03:17:02.146Z,53.07
2023-03-03T03:19:29.600Z,53.30
2023-03-03T03:22:00.135Z,51.53
2023-03-03T03:24:28.118Z,47.30
2023-03-03T03:27:00.797Z,48.17
2023-03-03T03:29:28.824Z,51.03
2023-03-03T03:31:56.337Z,53.63
2023-03-03T03:34:23.643Z,50.77
2023-03-03T03:36:52.495Z,57.43
2023-03-03T03:39:21.801Z,53.37
2023-03-03T03:41:51.311Z,52.87
2023-03-03T03:44:18.690Z,51.43
2023-03-03T03:46:45.964Z,52.20
2023-03-03T03:49:13.409Z,54.43
2023-03-03T03:51:41.982Z,55.10
2023-03-03T03:54:12.573Z,47.90
2023-03-03T03:56:40.661Z,52.07
2023-03-03T03:59:09.158Z,49.73
2023-03-03T04:01:37.815Z,58.23
2023-03-03T04:04:05.390Z,52.97
2023-03-03T04:06:33.251Z,51.90
2023-03-03T04:09:01.711Z,52.17
2023-03-03T04:11:30.640Z,51.90
2023-03-03T04:13:58.128Z,46.10
2023-03-03T04:16:27.245Z,50.00
2023-03-03T04:18:54.582Z,47.47
2023-03-03T04:21:22.526Z,51.87
2023-03-03T04:23:53.417Z,51.80
2023-03-03T04:26:20.994Z,52.03
2023-03-03T04:28:49.390Z,54.90
2023-03-03T04:31:16.908Z,52.27
2023-03-03T04:33:44.214Z,48.53
2023-03-03T04:36:12.009Z,49.47
2023-03-03T04:38:39.393Z,52.70
2023-03-03T04:41:06.830Z,51.83
2023-03-03T04:43:37.754Z,48.90
2023-03-03T04:46:06.041Z,51.17
2023-03-03T04:48:34.160Z,43.47
2023-03-03T04:51:01.627Z,45.03
2023-03-03T04:53:28.913Z,40.53
2023-03-03T04:55:56.855Z,41.73
2023-03-03T04:58:24.155Z,41.20
2023-03-03T05:00:56.377Z,39.77
2023-03-03T05:03:26.948Z,46.03
2023-03-03T05:05:54.593Z,40.80
2023-03-03T05:08:21.833Z,42.53
2023-03-03T05:10:52.180Z,45.40
2023-03-03T05:13:19.602Z,46.57
2023-03-03T05:15:51.189Z,47.70
2023-03-03T05:18:19.687Z,44.10
2023-03-03T05:20:46.944Z,58.20
2023-03-03T05:23:14.304Z,46.70
2023-03-03T05:25:42.423Z,45.40
2023-03-03T05:28:10.132Z,41.83
2023-03-03T05:30:37.796Z,40.77
2023-03-03T05:33:05.743Z,40.63
2023-03-03T05:35:33.496Z,41.70
2023-03-03T05:38:01.972Z,44.27
2023-03-03T05:40:29.999Z,42.50
2023-03-03T05:42:58.227Z,43.57
2023-03-03T05:45:25.543Z,44.13
2023-03-03T05:47:53.033Z,47.10
2023-03-03T05:50:21.510Z,57.43
2023-03-03T05:52:49.626Z,48.70
2023-03-03T05:55:16.912Z,47.27
2023-03-03T05:57:44.255Z,52.20
2023-03-03T06:00:12.351Z,50.27
2023-03-03T06:02:39.894Z,48.10
2023-03-03T06:05:07.473Z,49.03
2023-03-03T06:07:34.870Z,50.70
2023-03-03T06:10:02.097Z,49.57
2023-03-03T06:12:32.278Z,50.60
2023-03-03T06:14:59.633Z,55.70
2023-03-03T06:17:26.842Z,52.03
2023-03-03T06:19:54.232Z,52.13
2023-03-03T06:22:21.455Z,50.33
2023-03-03T06:24:48.790Z,51.23
2023-03-03T06:27:16.197Z,59.20
2023-03-03T06:29:43.734Z,53.50
2023-03-03T06:32:11.248Z,58.30
2023-03-03T06:34:38.697Z,55.13
2023-03-03T06:37:06.192Z,55.67
2023-03-03T06:39:33.464Z,60.80
2023-03-03T06:42:00.685Z,53.07
2023-03-03T06:44:28.936Z,53.50
2023-03-03T06:46:57.986Z,56.53
2023-03-03T06:49:25.334Z,51.37
2023-03-03T06:51:52.573Z,48.93
2023-03-03T06:54:21.081Z,47.07
2023-03-03T06:56:48.903Z,55.87
2023-03-03T06:59:34.775Z,49.17
2023-03-03T07:02:02.638Z,47.93
2023-03-03T07:04:34.527Z,48.57
2023-03-03T07:07:09.132Z,47.77
2023-03-03T07:09:36.377Z,50.43
2023-03-03T07:12:07.920Z,50.50
2023-03-03T07:14:37.265Z,44.00
2023-03-03T07:17:05.775Z,46.03
2023-03-03T07:19:37.139Z,45.33
2023-03-03T07:22:15.265Z,48.33
2023-03-03T07:24:43.056Z,47.43
2023-03-03T07:27:13.009Z,46.37
2023-03-03T07:29:41.395Z,47.53
2023-03-03T07:32:28.485Z,40.30
2023-03-03T07:34:56.945Z,40.83
2023-03-03T07:37:38.588Z,39.83
2023-03-03T07:40:38.405Z,41.37
2023-03-03T07:43:24.214Z,41.53
2023-03-03T07:45:55.670Z,49.00
2023-03-03T07:48:27.258Z,41.27
2023-03-03T07:50:54.552Z,40.70
2023-03-03T07:53:30.417Z,41.00
2023-03-03T07:55:57.689Z,46.07
2023-03-03T07:58:29.002Z,37.87
2023-03-03T08:01:15.366Z,42.63
2023-03-03T08:03:46.697Z,41.70
2023-03-03T08:06:32.773Z,42.87
2023-03-03T08:09:12.369Z,39.60
2023-03-03T08:11:50.029Z,39.60
2023-03-03T08:14:21.092Z,32.80
2023-03-03T08:16:48.473Z,34.70
2023-03-03T08:19:18.356Z,36.53
2023-03-03T08:21:45.603Z,37.13
2023-03-03T08:24:12.836Z,34.13
2023-03-03T08:26:40.158Z,33.47
2023-03-03T08:29:07.473Z,30.27
2023-03-03T08:31:41.390Z,33.83
2023-03-03T08:34:09.499Z,30.83
2023-03-03T08:36:37.035Z,28.77
2023-03-03T08:39:05.461Z,29.60
2023-03-03T08:41:32.814Z,28.37
2023-03-03T08:44:00.156Z,28.03
2023-03-03T08:46:28.735Z,29.43
2023-03-03T08:48:56.238Z,27.80
2023-03-03T08:51:23.626Z,26.93
2023-03-03T08:53:51.094Z,26.97
2023-03-03T08:56:18.498Z,27.23
2023-03-03T08:59:01.322Z,28.97
2023-03-03T09:01:29.955Z,28.40
2023-03-03T09:03:57.284Z,26.73
2023-03-03T09:06:27.474Z,25.93
2023-03-03T09:08:55.110Z,24.93
2023-03-03T09:11:27.546Z,24.43
2023-03-03T09:14:10.862Z,21.83
2023-03-03T09:16:39.553Z,22.83
2023-03-03T09:19:18.983Z,23.73
2023-03-03T09:21:46.406Z,24.37
2023-03-03T09:24:24.943Z,22.40
2023-03-03T09:27:11.279Z,23.77
2023-03-03T09:29:38.529Z,24.20
2023-03-03T09:32:23.299Z,21.97
2023-03-03T09:34:50.680Z,21.13
2023-03-03T09:37:34.836Z,21.43
2023-03-03T09:40:09.709Z,18.67
2023-03-03T09:42:42.792Z,17.27
2023-03-03T09:45:28.974Z,19.90
2023-03-03T09:48:15.298Z,18.07
2023-03-03T09:50:45.394Z,20.23
2023-03-03T09:53:19.408Z,17.10
2023-03-03T09:56:10.025Z,17.33
2023-03-03T09:58:37.350Z,16.37
2023-03-03T10:01:14.384Z,14.70
2023-03-03T10:04:00.609Z,15.37
2023-03-03T10:06:27.869Z,15.27
2023-03-03T10:09:00.840Z,19.00
2023-03-03T10:11:37.117Z,14.97
2023-03-03T10:14:10.721Z,13.67
2023-03-03T10:16:40.828Z,13.93
2023-03-03T10:19:15.885Z,14.00
2023-03-03T10:21:43.160Z,14.23
2023-03-03T10:24:21.527Z,12.57
2023-03-03T10:27:12.948Z,13.27
2023-03-03T10:30:04.442Z,13.83
2023-03-03T10:32:45.916Z,14.93
2023-03-03T10:35:16.359Z,13.00
2023-03-03T10:37:49.942Z,12.03
2023-03-03T10:40:20.508Z,13.80
2023-03-03T10:42:56.787Z,10.97
2023-03-03T10:45:36.323Z,11.93
2023-03-03T10:48:06.641Z,11.50
2023-03-03T10:50:49.306Z,11.47
2023-03-03T10:53:19.691Z,12.90
2023-03-03T10:55:52.983Z,13.53
2023-03-03T10:58:35.591Z,11.80
2023-03-03T11:01:06.058Z,10.97
2023-03-03T11:03:45.581Z,11.30
2023-03-03T11:06:17.125Z,9.80
2023-03-03T11:08:49.804Z,10.67
2023-03-03T11:11:17.072Z,10.23
2023-03-03T11:13:57.703Z,10.40
2023-03-03T11:16:25.503Z,10.23
2023-03-03T11:18:52.880Z,11.10
2023-03-03T11:21:20.204Z,9.70
2023-03-03T11:23:47.774Z,10.20
2023-03-03T11:26:20.925Z,8.83
2023-03-03T11:28:48.305Z,8.77
2023-03-03T11:31:16.173Z,10.40
2023-03-03T11:34:02.236Z,9.93
2023-03-03T11:36:50.552Z,10.70
2023-03-03T11:39:20.095Z,10.73
2023-03-03T11:42:01.061Z,10.33
2023-03-03T11:44:37.765Z,11.43
2023-03-03T11:47:07.223Z,10.73
2023-03-03T11:49:41.036Z,9.83
2023-03-03T11:52:17.681Z,11.53
2023-03-03T11:54:50.146Z,10.27
2023-03-03T11:57:17.614Z,11.23
2023-03-03T11:59:48.001Z,9.93
2023-03-03T12:02:34.352Z,9.60
2023-03-03T12:05:10.017Z,9.10
2023-03-03T12:08:03.623Z,8.97
2023-03-03T12:10:39.851Z,10.37
2023-03-03T12:13:11.334Z,10.90
2023-03-03T12:15:47.518Z,9.77
2023-03-03T12:18:14.749Z,10.57
2023-03-03T12:20:47.751Z,9.77
2023-03-03T12:23:18.105Z,10.70
2023-03-03T12:26:07.120Z,9.53
2023-03-03T12:28:36.275Z,6.93
2023-03-03T12:31:06.463Z,10.77
2023-03-03T12:33:36.941Z,9.67
2023-03-03T12:36:10.324Z,6.50
2023-03-03T12:38:37.576Z,6.87
2023-03-03T12:41:16.129Z,7.87
2023-03-03T12:43:43.380Z,7.20
2023-03-03T12:46:18.701Z,6.90
2023-03-03T12:48:46.471Z,6.93
2023-03-03T12:51:32.631Z,6.43
2023-03-03T12:54:11.993Z,7.60
2023-03-03T12:56:39.250Z,6.20
2023-03-03T12:59:11.628Z,5.80
2023-03-03T13:01:38.961Z,5.67
2023-03-03T13:04:06.346Z,6.47
2023-03-03T13:06:42.096Z,4.97
2023-03-03T13:09:23.598Z,7.00
2023-03-03T13:12:10.068Z,6.83
2023-03-03T13:14:37.324Z,6.40
2023-03-03T13:17:04.803Z,6.30
2023-03-03T13:19:41.214Z,6.50
2023-03-03T13:22:15.802Z,6.57
2023-03-03T13:24:52.595Z,7.33
2023-03-03T13:27:21.072Z,9.30
2023-03-03T13:29:51.267Z,8.77
2023-03-03T13:32:20.632Z,8.40
2023-03-03T13:34:54.484Z,8.77
2023-03-03T13:37:28.689Z,8.67
2023-03-03T13:40:08.676Z,10.13
2023-03-03T13:42:36.151Z,9.10
2023-03-03T13:45:08.189Z,8.17
2023-03-03T13:47:41.866Z,8.83
2023-03-03T13:50:28.456Z,9.20
2023-03-03T13:53:06.202Z,8.07
2023-03-03T13:55:40.194Z,6.70
2023-03-03T13:58:14.648Z,7.90
2023-03-03T14:00:49.425Z,7.13
2023-03-03T14:03:36.842Z,8.93
2023-03-03T14:06:14.680Z,10.37
2023-03-03T14:08:57.367Z,9.20
2023-03-03T14:11:38.473Z,9.57
2023-03-03T14:14:24.537Z,9.07
2023-03-03T14:16:53.260Z,9.23
2023-03-03T14:19:20.442Z,8.90
2023-03-03T14:21:56.915Z,10.10
2023-03-03T14:24:26.432Z,10.43
2023-03-03T14:26:55.172Z,9.97
2023-03-03T14:29:30.440Z,10.20
2023-03-03T14:31:59.193Z,11.40
2023-03-03T14:34:41.068Z,10.47
2023-03-03T14:37:25.804Z,10.03
2023-03-03T14:40:05.234Z,9.40
2023-03-03T14:42:48.963Z,10.30
2023-03-03T14:45:39.537Z,10.60
2023-03-03T14:48:17.603Z,9.70
2023-03-03T14:51:06.710Z,10.23
2023-03-03T14:53:36.421Z,8.20
2023-03-03T14:56:22.885Z,9.60
2023-03-03T14:58:50.587Z,11.13
2023-03-03T15:01:17.916Z,9.87
2023-03-03T15:03:47.980Z,9.50
2023-03-03T15:06:28.954Z,10.13
2023-03-03T15:08:56.394Z,10.13
2023-03-03T15:11:28.233Z,9.07
2023-03-03T15:14:10.874Z,8.70
2023-03-03T15:16:40.074Z,7.03
2023-03-03T15:19:25.988Z,9.53
2023-03-03T15:22:00.672Z,10.37
2023-03-03T15:24:31.019Z,10.40
2023-03-03T15:26:58.318Z,8.33
2023-03-03T15:29:37.799Z,8.53
2023-03-03T15:32:09.736Z,9.53
2023-03-03T15:34:36.988Z,9.10
2023-03-03T15:37:23.017Z,10.07
2023-03-03T15:39:53.086Z,9.20
2023-03-03T15:42:43.829Z,10.63
2023-03-03T15:45:11.112Z,9.27
2023-03-03T15:47:55.355Z,11.60
2023-03-03T15:50:22.698Z,9.73
2023-03-03T15:53:02.215Z,12.17
2023-03-03T15:55:42.839Z,12.93
2023-03-03T15:58:28.965Z,13.63
2023-03-03T16:00:56.673Z,13.03
2023-03-03T16:03:28.359Z,13.30
2023-03-03T16:06:18.926Z,15.97
2023-03-03T16:09:04.354Z,16.30
2023-03-03T16:11:31.718Z,16.50
2023-03-03T16:14:04.805Z,14.67
2023-03-03T16:16:39.609Z,19.17
2023-03-03T16:19:12.575Z,20.57
2023-03-03T16:21:58.561Z,16.80
2023-03-03T16:24:33.829Z,17.07
2023-03-03T16:27:03.929Z,16.90
2023-03-03T16:29:31.261Z,21.87
2023-03-03T16:32:01.626Z,22.53
2023-03-03T16:34:37.474Z,23.77
2023-03-03T16:37:24.029Z,29.23
2023-03-03T16:40:04.300Z,24.60
2023-03-03T16:42:32.716Z,27.07
2023-03-03T16:45:06.590Z,32.63
2023-03-03T16:47:42.727Z,29.10
2023-03-03T16:50:21.874Z,27.83
2023-03-03T16:52:54.761Z,23.80
2023-03-03T16:55:42.383Z,24.30
2023-03-03T16:58:17.230Z,22.27
2023-03-03T17:00:56.432Z,24.17
2023-03-03T17:03:26.549Z,26.07
2023-03-03T17:05:57.527Z,32.97
2023-03-03T17:08:33.911Z,27.57
2023-03-03T17:11:12.681Z,31.13
2023-03-03T17:13:49.300Z,55.47
2023-03-03T17:16:19.602Z,30.20
2023-03-03T17:19:03.800Z,28.30
2023-03-03T17:21:44.520Z,29.33
2023-03-03T17:24:30.930Z,26.20
2023-03-03T17:27:07.054Z,30.43
2023-03-03T17:29:40.505Z,27.40
2023-03-03T17:32:26.753Z,23.27
2023-03-03T17:35:12.929Z,29.73
2023-03-03T17:37:47.195Z,30.73
2023-03-03T17:40:14.491Z,28.43
2023-03-03T17:43:04.894Z,32.93
2023-03-03T17:45:35.462Z,29.77
2023-03-03T17:48:05.925Z,30.03
2023-03-03T17:50:33.411Z,30.77
2023-03-03T17:53:16.029Z,29.27
2023-03-03T17:55:56.422Z,35.77
2023-03-03T17:58:24.388Z,34.53
2023-03-03T18:00:59.480Z,34.30
2023-03-03T18:03:39.198Z,33.87
2023-03-03T18:06:25.527Z,34.00
2023-03-03T18:09:14.846Z,66.70
2023-03-03T18:12:01.084Z,41.87
2023-03-03T18:14:31.465Z,35.90
2023-03-03T18:17:17.658Z,36.17
2023-03-03T18:20:03.610Z,37.57
2023-03-03T18:22:35.199Z,35.47
2023-03-03T18:25:09.147Z,29.63
2023-03-03T18:27:40.784Z,37.23
2023-03-03T18:30:24.721Z,36.93
2023-03-03T18:33:01.726Z,38.57
2023-03-03T18:35:32.172Z,38.87
2023-03-03T18:38:20.780Z,42.27
2023-03-03T18:40:52.593Z,37.73
2023-03-03T18:43:49.465Z,40.30
2023-03-03T18:46:22.943Z,37.17
2023-03-03T18:49:04.810Z,37.53
2023-03-03T18:51:35.419Z,41.27
2023-03-03T18:54:07.462Z,38.27
2023-03-03T18:56:47.282Z,38.10
2023-03-03T18:59:34.134Z,39.27
2023-03-03T19:02:14.120Z,38.70
2023-03-03T19:04:43.568Z,36.63
2023-03-03T19:07:16.004Z,37.90
2023-03-03T19:09:46.549Z,37.73
2023-03-03T19:12:17.151Z,36.63
2023-03-03T19:14:48.383Z,38.97
2023-03-03T19:17:18.918Z,37.63
2023-03-03T19:20:02.231Z,33.90
2023-03-03T19:22:31.217Z,37.87
2023-03-03T19:25:06.273Z,36.73
2023-03-03T19:27:36.582Z,37.90
2023-03-03T19:30:13.339Z,36.17
2023-03-03T19:32:49.229Z,34.00
2023-03-03T19:35:25.782Z,32.87
2023-03-03T19:38:04.469Z,34.90
2023-03-03T19:40:34.834Z,33.67
2023-03-03T19:43:11.316Z,34.67
2023-03-03T19:45:45.188Z,37.17
2023-03-03T19:48:25.786Z,37.80
2023-03-03T19:50:57.237Z,37.47
2023-03-03T19:53:28.966Z,35.50
2023-03-03T19:56:11.014Z,36.23
2023-03-03T19:58:38.649Z,29.80
2023-03-03T20:01:17.322Z,37.07
2023-03-03T20:03:54.088Z,32.83
2023-03-03T20:06:35.546Z,34.77
2023-03-03T20:09:04.627Z,35.83
2023-03-03T20:11:48.192Z,38.20
2023-03-03T20:14:27.971Z,32.00
2023-03-03T20:16:58.179Z,31.63
2023-03-03T20:19:31.663Z,38.37
2023-03-03T20:22:20.296Z,39.80
2023-03-03T20:24:55.237Z,36.43
2023-03-03T20:27:30.800Z,37.90
2023-03-03T20:29:58.150Z,36.27
2023-03-03T20:32:48.590Z,36.53
2023-03-03T20:35:25.023Z,37.23
2023-03-03T20:38:08.107Z,37.03
2023-03-03T20:40:44.441Z,36.47
2023-03-03T20:43:14.797Z,34.70
2023-03-03T20:45:47.866Z,34.47
2023-03-03T20:48:18.520Z,33.10
2023-03-03T20:50:48.953Z,35.20
2023-03-03T20:53:19.526Z,39.53
2023-03-03T20:56:05.352Z,31.83
2023-03-03T20:58:41.745Z,31.73
2023-03-03T21:01:16.864Z,36.93
2023-03-03T21:03:45.960Z,36.03
2023-03-03T21:06:20.987Z,36.80
2023-03-03T21:08:56.425Z,37.27
2023-03-03T21:11:25.262Z,40.80
2023-03-03T21:13:54.460Z,37.20
2023-03-03T21:16:21.812Z,45.43
2023-03-03T21:18:59.537Z,42.50
2023-03-03T21:21:28.241Z,36.97
2023-03-03T21:23:55.552Z,42.43
2023-03-03T21:26:41.656Z,40.70
2023-03-03T21:29:09.339Z,43.33
2023-03-03T21:31:47.123Z,40.47
2023-03-03T21:34:21.615Z,47.73
2023-03-03T21:36:49.782Z,45.33
2023-03-03T21:39:24.505Z,42.40
2023-03-03T21:42:00.942Z,49.80
2023-03-03T21:44:46.412Z,47.00
2023-03-03T21:47:15.101Z,50.27
2023-03-03T21:49:43.363Z,49.33
2023-03-03T21:52:11.503Z,51.73
2023-03-03T21:54:39.308Z,47.73
2023-03-03T21:57:06.529Z,49.00
2023-03-03T21:59:33.890Z,49.70
2023-03-03T22:02:01.150Z,50.40
2023-03-03T22:04:28.623Z,53.63
2023-03-03T22:06:56.207Z,48.70
2023-03-03T22:09:24.336Z,54.10
2023-03-03T22:11:51.581Z,52.77
2023-03-03T22:14:18.872Z,53.53
2023-03-03T22:16:46.393Z,52.40
2023-03-03T22:21:58.471Z,55.27
2023-03-03T22:24:25.768Z,52.43
2023-03-03T22:26:53.045Z,52.43
2023-03-03T22:29:23.059Z,50.17
2023-03-03T22:31:51.113Z,54.93
2023-03-03T22:34:18.948Z,49.03
2023-03-03T22:36:46.291Z,51.83
2023-03-03T22:39:13.612Z,47.90
2023-03-03T22:41:40.992Z,48.60
2023-03-03T22:44:08.221Z,46.90
2023-03-03T22:46:36.987Z,52.90
2023-03-03T22:49:05.664Z,45.67
2023-03-03T22:51:33.942Z,45.43
2023-03-03T22:54:03.114Z,46.77
2023-03-03T22:56:50.241Z,52.10
2023-03-03T22:59:19.004Z,44.67
2023-03-03T23:01:47.567Z,45.17
2023-03-03T23:04:36.668Z,39.47
2023-03-03T23:07:05.224Z,40.23
2023-03-03T23:09:32.682Z,41.23
2023-03-03T23:12:18.351Z,43.43
2023-03-03T23:14:45.702Z,40.03
2023-03-03T23:17:13.130Z,36.73
2023-03-03T23:19:40.511Z,36.73
2023-03-03T23:22:07.804Z,36.77
2023-03-03T23:24:35.268Z,39.67
2023-03-03T23:27:02.672Z,41.90
2023-03-03T23:29:30.769Z,35.30
2023-03-03T23:31:58.125Z,41.07
2023-03-03T23:34:25.829Z,35.47
2023-03-03T23:36:53.097Z,36.10
2023-03-03T23:39:20.392Z,39.60
2023-03-03T23:41:47.696Z,38.30
2023-03-03T23:44:15.139Z,36.93
2023-03-03T23:46:42.504Z,33.40
2023-03-03T23:49:09.794Z,34.43
2023-03-03T23:51:37.273Z,34.27
2023-03-03T23:54:04.704Z,40.37
2023-03-03T23:56:31.968Z,34.27
2023-03-03T23:58:59.743Z,37.33
